createdAt,value
2018-12-14T00:00:46.646Z,100.00
2018-12-14T00:03:14.086Z,100.00
2018-12-14T00:05:41.508Z,100.00
2018-12-14T00:08:08.946Z,100.00
2018-12-14T00:10:36.418Z,100.00
2018-12-14T00:13:03.873Z,100.00
2018-12-14T00:15:31.327Z,100.00
2018-12-14T00:17:58.742Z,100.00
2018-12-14T00:20:26.199Z,100.00
2018-12-14T00:22:53.636Z,100.00
2018-12-14T00:25:21.082Z,100.00
2018-12-14T00:27:48.518Z,100.00
2018-12-14T00:30:15.975Z,100.00
2018-12-14T00:32:43.501Z,100.00
2018-12-14T00:35:10.943Z,100.00
2018-12-14T00:37:38.367Z,100.00
2018-12-14T00:40:05.871Z,100.00
2018-12-14T00:42:33.314Z,100.00
2018-12-14T00:45:00.723Z,100.00
2018-12-14T00:47:28.228Z,100.00
2018-12-14T00:49:55.640Z,100.00
2018-12-14T00:52:23.080Z,100.00
2018-12-14T00:54:50.642Z,100.00
2018-12-14T00:57:18.139Z,100.00
2018-12-14T00:59:45.667Z,100.00
2018-12-14T01:02:18.781Z,100.00
2018-12-14T01:04:46.249Z,100.00
2018-12-14T01:07:13.698Z,100.00
2018-12-14T01:09:41.123Z,100.00
2018-12-14T01:12:08.537Z,100.00
2018-12-14T01:14:35.989Z,100.00
2018-12-14T01:17:03.475Z,100.00
2018-12-14T01:19:30.885Z,100.00
2018-12-14T01:21:58.322Z,100.00
2018-12-14T01:24:25.767Z,100.00
2018-12-14T01:26:53.194Z,100.00
2018-12-14T01:29:20.694Z,100.00
2018-12-14T01:31:48.093Z,100.00
2018-12-14T01:34:15.664Z,100.00
2018-12-14T01:36:43.086Z,100.00
2018-12-14T01:39:10.497Z,100.00
2018-12-14T01:41:37.930Z,100.00
2018-12-14T01:44:05.393Z,100.00
2018-12-14T01:46:32.811Z,100.00
2018-12-14T01:49:00.246Z,100.00
2018-12-14T01:51:27.701Z,100.00
2018-12-14T01:53:55.145Z,100.00
2018-12-14T01:56:22.585Z,100.00
2018-12-14T01:58:49.991Z,100.00
2018-12-14T02:01:17.429Z,100.00
2018-12-14T02:03:44.889Z,100.00
2018-12-14T02:06:12.307Z,100.00
2018-12-14T02:08:39.718Z,100.00
2018-12-14T02:11:07.143Z,100.00
2018-12-14T02:13:34.575Z,100.00
2018-12-14T02:16:02.049Z,100.00
2018-12-14T02:18:29.621Z,100.00
2018-12-14T02:20:57.043Z,100.00
2018-12-14T02:23:24.487Z,100.00
2018-12-14T02:25:51.913Z,100.00
2018-12-14T02:28:19.353Z,100.00
2018-12-14T02:30:46.851Z,100.00
2018-12-14T02:33:14.415Z,100.00
2018-12-14T02:35:41.867Z,100.00
2018-12-14T02:38:09.296Z,100.00
2018-12-14T02:40:36.754Z,100.00
2018-12-14T02:43:04.206Z,100.00
2018-12-14T02:45:31.652Z,100.00
2018-12-14T02:47:59.056Z,100.00
2018-12-14T02:50:26.512Z,100.00
2018-12-14T02:52:53.931Z,100.00
2018-12-14T02:55:21.402Z,100.00
2018-12-14T02:57:48.928Z,100.00
2018-12-14T03:00:16.457Z,100.00
2018-12-14T03:02:43.887Z,100.00
2018-12-14T03:05:11.345Z,100.00
2018-12-14T03:07:38.800Z,100.00
2018-12-14T03:10:06.598Z,100.00
2018-12-14T03:12:34.098Z,100.00
2018-12-14T03:15:01.559Z,100.00
2018-12-14T03:17:29.044Z,100.00
2018-12-14T03:19:56.633Z,100.00
2018-12-14T03:22:24.595Z,100.00
2018-12-14T03:24:52.044Z,100.00
2018-12-14T03:27:19.501Z,100.00
2018-12-14T03:29:46.998Z,100.00
2018-12-14T03:32:14.465Z,100.00
2018-12-14T03:34:41.903Z,100.00
2018-12-14T03:37:09.323Z,100.00
2018-12-14T03:39:36.759Z,100.00
2018-12-14T03:42:04.211Z,100.00
2018-12-14T03:44:31.668Z,100.00
2018-12-14T03:46:59.386Z,100.00
2018-12-14T03:49:26.846Z,100.00
2018-12-14T03:51:54.268Z,100.00
2018-12-14T03:54:21.741Z,100.00
2018-12-14T03:56:49.176Z,100.00
2018-12-14T03:59:16.612Z,100.00
2018-12-14T04:01:44.089Z,100.00
2018-12-14T04:04:11.547Z,100.00
2018-12-14T04:06:38.996Z,100.00
2018-12-14T04:09:06.480Z,100.00
2018-12-14T04:11:34.028Z,100.00
2018-12-14T04:14:01.487Z,100.00
2018-12-14T04:16:28.938Z,100.00
2018-12-14T04:18:56.448Z,100.00
2018-12-14T04:21:23.890Z,100.00
2018-12-14T04:23:51.436Z,100.00
2018-12-14T04:26:18.859Z,100.00
2018-12-14T04:28:46.282Z,100.00
2018-12-14T04:31:13.706Z,100.00
2018-12-14T04:33:41.620Z,100.00
2018-12-14T04:36:09.064Z,100.00
2018-12-14T04:38:36.512Z,100.00
2018-12-14T04:41:03.952Z,100.00
2018-12-14T04:43:31.390Z,100.00
2018-12-14T04:45:58.819Z,100.00
2018-12-14T04:48:26.265Z,100.00
2018-12-14T04:50:53.702Z,100.00
2018-12-14T04:53:21.142Z,100.00
2018-12-14T04:55:48.592Z,100.00
2018-12-14T04:58:16.032Z,100.00
2018-12-14T05:00:43.457Z,100.00
2018-12-14T05:03:10.873Z,100.00
2018-12-14T05:05:38.420Z,100.00
2018-12-14T05:08:05.905Z,100.00
2018-12-14T05:10:33.372Z,100.00
2018-12-14T05:13:00.797Z,100.00
2018-12-14T05:15:28.236Z,100.00
2018-12-14T05:17:55.674Z,100.00
2018-12-14T05:20:23.111Z,100.00
2018-12-14T05:22:50.555Z,100.00
2018-12-14T05:25:17.989Z,100.00
2018-12-14T05:27:45.476Z,100.00
2018-12-14T05:30:13.264Z,100.00
2018-12-14T05:32:40.697Z,100.00
2018-12-14T05:35:08.182Z,100.00
2018-12-14T05:37:35.635Z,100.00
2018-12-14T05:40:03.090Z,100.00
2018-12-14T05:42:30.569Z,100.00
2018-12-14T05:44:58.035Z,100.00
2018-12-14T05:47:25.466Z,100.00
2018-12-14T05:49:52.894Z,100.00
2018-12-14T05:52:20.371Z,100.00
2018-12-14T05:54:47.821Z,100.00
2018-12-14T05:57:15.283Z,100.00
2018-12-14T05:59:42.699Z,100.00
2018-12-14T06:02:10.181Z,100.00
2018-12-14T06:04:37.649Z,100.00
2018-12-14T06:07:05.119Z,100.00
2018-12-14T06:09:32.555Z,100.00
2018-12-14T06:12:00.073Z,100.00
2018-12-14T06:14:27.507Z,100.00
2018-12-14T06:16:55.002Z,100.00
2018-12-14T06:19:22.423Z,100.00
2018-12-14T06:21:49.843Z,100.00
2018-12-14T06:24:17.305Z,100.00
2018-12-14T06:26:44.782Z,100.00
2018-12-14T06:29:12.225Z,100.00
2018-12-14T06:31:39.710Z,100.00
2018-12-14T06:34:07.132Z,100.00
2018-12-14T06:36:35.390Z,100.00
2018-12-14T06:39:03.639Z,100.00
2018-12-14T06:41:31.106Z,100.00
2018-12-14T06:43:58.543Z,100.00
2018-12-14T06:46:25.975Z,100.00
2018-12-14T06:48:53.420Z,100.00
2018-12-14T06:51:20.864Z,100.00
2018-12-14T06:53:48.283Z,100.00
2018-12-14T06:56:15.700Z,100.00
2018-12-14T06:58:43.167Z,100.00
2018-12-14T07:01:10.588Z,100.00
2018-12-14T07:03:38.035Z,100.00
2018-12-14T07:06:05.449Z,100.00
2018-12-14T07:08:32.904Z,100.00
2018-12-14T07:11:00.388Z,100.00
2018-12-14T07:13:27.810Z,100.00
2018-12-14T07:15:55.227Z,100.00
2018-12-14T07:18:22.655Z,100.00
2018-12-14T07:20:50.307Z,100.00
2018-12-14T07:23:17.724Z,100.00
2018-12-14T07:25:45.155Z,100.00
2018-12-14T07:28:12.580Z,100.00
2018-12-14T07:30:40.000Z,100.00
2018-12-14T07:33:07.428Z,100.00
2018-12-14T07:35:34.867Z,100.00
2018-12-14T07:38:02.329Z,100.00
2018-12-14T07:40:29.776Z,100.00
2018-12-14T07:42:57.204Z,100.00
2018-12-14T07:45:24.649Z,100.00
2018-12-14T07:47:52.188Z,100.00
2018-12-14T07:50:19.631Z,100.00
2018-12-14T07:52:47.047Z,100.00
2018-12-14T07:55:14.503Z,100.00
2018-12-14T07:57:41.924Z,100.00
2018-12-14T08:00:09.403Z,100.00
2018-12-14T08:02:36.878Z,100.00
2018-12-14T08:05:05.070Z,100.00
2018-12-14T08:07:32.500Z,100.00
2018-12-14T08:09:59.921Z,100.00
2018-12-14T08:12:28.356Z,100.00
2018-12-14T08:14:55.778Z,100.00
2018-12-14T08:17:23.190Z,100.00
2018-12-14T08:19:50.602Z,100.00
2018-12-14T08:22:18.056Z,100.00
2018-12-14T08:24:45.507Z,100.00
2018-12-14T08:27:13.029Z,100.00
2018-12-14T08:29:40.425Z,100.00
2018-12-14T08:32:07.903Z,100.00
2018-12-14T08:34:35.385Z,100.00
2018-12-14T08:37:02.840Z,100.00
2018-12-14T08:39:30.277Z,100.00
2018-12-14T08:41:57.735Z,100.00
2018-12-14T08:44:25.154Z,100.00
2018-12-14T08:46:52.600Z,100.00
2018-12-14T08:49:20.051Z,100.00
2018-12-14T08:51:47.459Z,100.00
2018-12-14T08:54:14.904Z,100.00
2018-12-14T08:56:42.356Z,100.00
2018-12-14T08:59:09.787Z,100.00
2018-12-14T09:01:37.213Z,100.00
2018-12-14T09:04:04.665Z,100.00
2018-12-14T09:06:32.117Z,100.00
2018-12-14T09:08:59.543Z,100.00
2018-12-14T09:11:26.959Z,100.00
2018-12-14T09:13:54.386Z,100.00
2018-12-14T09:16:21.844Z,100.00
2018-12-14T09:18:49.267Z,100.00
2018-12-14T09:21:16.687Z,100.00
2018-12-14T09:23:44.142Z,100.00
2018-12-14T09:26:11.607Z,100.00
2018-12-14T09:28:39.045Z,100.00
2018-12-14T09:31:06.471Z,100.00
2018-12-14T09:33:33.923Z,100.00
2018-12-14T09:36:01.447Z,100.00
2018-12-14T09:38:28.864Z,100.00
2018-12-14T09:40:56.329Z,100.00
2018-12-14T09:43:23.776Z,100.00
2018-12-14T09:45:51.200Z,100.00
2018-12-14T09:48:18.619Z,98.35
2018-12-14T09:50:46.192Z,97.94
2018-12-14T09:53:13.641Z,98.24
2018-12-14T09:55:41.188Z,97.44
2018-12-14T09:58:08.614Z,97.21
2018-12-14T10:00:36.100Z,96.96
2018-12-14T10:03:03.561Z,97.50
2018-12-14T10:05:30.956Z,97.41
2018-12-14T10:07:59.098Z,97.24
2018-12-14T10:10:26.543Z,95.13
2018-12-14T10:12:53.955Z,95.08
2018-12-14T10:15:21.373Z,94.35
2018-12-14T10:17:48.781Z,93.72
2018-12-14T10:20:16.210Z,93.95
2018-12-14T10:22:43.652Z,93.69
2018-12-14T10:25:11.095Z,91.97
2018-12-14T10:27:38.511Z,93.24
2018-12-14T10:30:08.270Z,93.98
2018-12-14T10:32:35.688Z,93.77
2018-12-14T10:35:03.964Z,92.33
2018-12-14T10:37:31.368Z,91.84
2018-12-14T10:39:58.879Z,90.63
2018-12-14T10:42:26.343Z,91.36
2018-12-14T10:44:53.784Z,92.53
2018-12-14T10:47:21.231Z,92.95
2018-12-14T10:49:48.665Z,92.27
2018-12-14T10:52:16.117Z,91.27
2018-12-14T10:54:43.767Z,90.61
2018-12-14T10:57:16.145Z,91.14
2018-12-14T10:59:40.839Z,89.16
2018-12-14T11:02:08.292Z,88.95
2018-12-14T11:04:35.699Z,90.06
2018-12-14T11:07:03.126Z,90.59
2018-12-14T11:09:30.568Z,90.23
2018-12-14T11:11:58.026Z,90.88
2018-12-14T11:14:25.466Z,89.09
2018-12-14T11:16:52.951Z,88.91
2018-12-14T11:19:20.382Z,90.20
2018-12-14T11:21:47.811Z,89.85
2018-12-14T11:24:15.262Z,88.71
2018-12-14T11:26:42.687Z,88.31
2018-12-14T11:29:10.103Z,87.31
2018-12-14T11:31:37.535Z,87.96
2018-12-14T11:34:04.963Z,88.71
2018-12-14T11:36:32.392Z,88.18
2018-12-14T11:38:59.816Z,88.47
2018-12-14T11:41:27.572Z,88.62
2018-12-14T11:43:55.026Z,88.98
2018-12-14T11:46:22.429Z,87.77
2018-12-14T11:48:49.860Z,88.79
2018-12-14T11:51:17.292Z,89.11
2018-12-14T11:53:44.742Z,87.70
2018-12-14T11:56:12.192Z,88.60
2018-12-14T11:58:39.622Z,88.57
2018-12-14T12:01:07.066Z,90.13
2018-12-14T12:03:34.465Z,90.55
2018-12-14T12:06:01.897Z,90.02
2018-12-14T12:08:29.320Z,89.25
2018-12-14T12:10:56.727Z,88.39
2018-12-14T12:13:24.176Z,88.26
2018-12-14T12:15:51.607Z,88.37
2018-12-14T12:18:19.040Z,88.93
2018-12-14T12:20:46.482Z,88.96
2018-12-14T12:23:13.926Z,90.02
2018-12-14T12:25:41.348Z,90.04
2018-12-14T12:28:08.792Z,89.15
2018-12-14T12:30:36.219Z,89.14
2018-12-14T12:33:03.641Z,89.62
2018-12-14T12:35:31.088Z,90.15
2018-12-14T12:37:58.541Z,89.11
2018-12-14T12:40:25.984Z,88.74
2018-12-14T12:42:53.426Z,89.40
2018-12-14T12:45:20.910Z,88.83
2018-12-14T12:47:48.323Z,88.34
2018-12-14T12:50:15.735Z,88.38
2018-12-14T12:52:43.151Z,87.63
2018-12-14T12:55:10.598Z,90.00
2018-12-14T12:57:38.012Z,90.48
2018-12-14T13:00:06.075Z,91.49
2018-12-14T13:02:33.488Z,90.06
2018-12-14T13:05:00.924Z,91.62
2018-12-14T13:07:28.343Z,91.68
2018-12-14T13:09:55.767Z,91.54
2018-12-14T13:12:23.715Z,91.37
2018-12-14T13:14:51.128Z,91.65
2018-12-14T13:17:18.589Z,91.82
2018-12-14T13:19:46.016Z,92.03
2018-12-14T13:22:13.422Z,92.13
2018-12-14T13:24:40.851Z,92.49
2018-12-14T13:27:08.303Z,92.17
2018-12-14T13:29:35.745Z,92.20
2018-12-14T13:32:03.212Z,91.65
2018-12-14T13:34:31.570Z,91.90
2018-12-14T13:36:59.000Z,92.60
2018-12-14T13:39:26.451Z,92.65
2018-12-14T13:41:53.967Z,93.26
2018-12-14T13:44:21.921Z,93.30
2018-12-14T13:46:50.222Z,93.78
2018-12-14T13:49:17.897Z,93.03
2018-12-14T13:51:45.397Z,92.71
2018-12-14T13:54:12.816Z,93.49
2018-12-14T13:56:40.243Z,93.72
2018-12-14T13:59:07.686Z,93.87
2018-12-14T14:01:35.138Z,94.11
2018-12-14T14:04:02.571Z,93.87
2018-12-14T14:06:29.985Z,93.77
2018-12-14T14:08:57.409Z,93.43
2018-12-14T14:11:24.864Z,93.18
2018-12-14T14:13:52.353Z,93.62
2018-12-14T14:16:19.792Z,94.15
2018-12-14T14:18:47.232Z,93.79
2018-12-14T14:21:14.704Z,93.94
2018-12-14T14:23:42.124Z,94.61
2018-12-14T14:26:09.558Z,94.51
2018-12-14T14:28:36.979Z,94.95
2018-12-14T14:31:04.427Z,94.85
2018-12-14T14:33:31.936Z,94.38
2018-12-14T14:35:59.410Z,95.05
2018-12-14T14:38:26.860Z,95.83
2018-12-14T14:40:54.289Z,95.10
2018-12-14T14:43:21.711Z,95.17
2018-12-14T14:45:49.127Z,95.49
2018-12-14T14:48:16.677Z,94.77
2018-12-14T14:50:44.121Z,94.86
2018-12-14T14:53:11.592Z,95.61
2018-12-14T14:55:39.007Z,94.95
2018-12-14T14:58:06.421Z,95.47
2018-12-14T15:00:33.880Z,95.52
2018-12-14T15:03:01.398Z,96.03
2018-12-14T15:05:28.855Z,95.75
2018-12-14T15:07:56.314Z,95.95
2018-12-14T15:10:23.727Z,96.19
2018-12-14T15:12:51.155Z,96.51
2018-12-14T15:15:18.600Z,96.36
2018-12-14T15:17:46.019Z,95.87
2018-12-14T15:20:13.517Z,96.12
2018-12-14T15:22:40.926Z,96.32
2018-12-14T15:25:08.352Z,95.90
2018-12-14T15:27:35.804Z,96.18
2018-12-14T15:30:03.676Z,95.56
2018-12-14T15:32:31.225Z,95.22
2018-12-14T15:34:59.303Z,95.39
2018-12-14T15:37:27.026Z,94.87
2018-12-14T15:39:54.476Z,94.78
2018-12-14T15:42:21.883Z,95.83
2018-12-14T15:44:49.312Z,95.39
2018-12-14T15:47:16.774Z,95.34
2018-12-14T15:49:44.202Z,94.80
2018-12-14T15:52:11.627Z,96.17
2018-12-14T15:54:39.053Z,96.13
2018-12-14T15:57:06.464Z,94.90
2018-12-14T15:59:33.889Z,95.28
2018-12-14T16:02:28.173Z,94.97
2018-12-14T16:04:55.816Z,95.72
2018-12-14T16:07:23.244Z,95.36
2018-12-14T16:13:47.734Z,95.50
2018-12-14T16:16:15.301Z,94.63
2018-12-14T16:18:42.770Z,94.91
2018-12-14T16:21:10.272Z,95.16
2018-12-14T16:23:37.705Z,94.96
2018-12-14T16:26:05.217Z,95.15
2018-12-14T16:31:23.098Z,94.96
2018-12-14T16:39:51.251Z,95.86
2018-12-14T16:42:18.699Z,96.02
2018-12-14T16:44:46.056Z,96.29
2018-12-14T16:47:13.450Z,96.05
2018-12-14T16:49:40.834Z,95.48
2018-12-14T16:52:08.240Z,95.48
2018-12-14T16:54:35.641Z,95.53
2018-12-14T16:57:03.045Z,96.05
2018-12-14T16:59:30.425Z,96.61
2018-12-14T17:01:57.823Z,96.72
2018-12-14T17:04:25.249Z,96.79
2018-12-14T17:06:52.697Z,96.69
2018-12-14T17:09:20.090Z,96.81
2018-12-14T17:11:47.481Z,97.21
2018-12-14T17:14:14.867Z,96.96
2018-12-14T17:16:42.276Z,96.98
2018-12-14T17:19:09.646Z,97.51
2018-12-14T17:21:37.031Z,97.60
2018-12-14T17:24:04.426Z,97.33
2018-12-14T17:26:31.793Z,97.52
2018-12-14T17:28:59.174Z,97.37
2018-12-14T17:31:26.577Z,97.49
2018-12-14T17:33:53.970Z,97.99
2018-12-14T17:36:21.346Z,97.16
2018-12-14T17:38:48.738Z,98.29
2018-12-14T17:41:16.177Z,97.99
2018-12-14T17:43:43.565Z,97.35
2018-12-14T17:46:10.943Z,96.88
2018-12-14T17:48:38.411Z,97.82
2018-12-14T17:51:05.796Z,98.72
2018-12-14T17:53:33.179Z,97.93
2018-12-14T17:56:00.574Z,98.23
2018-12-14T17:58:27.950Z,97.93
2018-12-14T18:00:58.372Z,97.85
2018-12-14T18:03:24.724Z,98.54
2018-12-14T18:05:52.093Z,97.95
2018-12-14T18:08:19.505Z,98.38
2018-12-14T18:10:46.878Z,98.86
2018-12-14T18:13:14.261Z,98.45
2018-12-14T18:15:46.351Z,98.94
2018-12-14T18:18:11.925Z,98.65
2018-12-14T18:20:39.345Z,98.62
2018-12-14T18:23:06.737Z,98.85
2018-12-14T18:25:34.229Z,98.89
2018-12-14T18:28:01.610Z,99.22
2018-12-14T18:30:28.999Z,99.35
2018-12-14T18:32:56.465Z,99.22
2018-12-14T18:35:23.894Z,99.49
2018-12-14T18:37:51.290Z,99.07
2018-12-14T18:40:18.685Z,98.93
2018-12-14T18:42:46.160Z,99.29
2018-12-14T18:45:13.528Z,98.99
2018-12-14T18:47:40.926Z,98.38
2018-12-14T18:50:08.313Z,98.50
2018-12-14T18:52:35.690Z,98.55
2018-12-14T18:55:03.089Z,98.74
2018-12-14T18:57:30.534Z,98.41
2018-12-14T18:59:57.935Z,99.13
2018-12-14T19:02:25.607Z,99.44
2018-12-14T19:04:53.010Z,98.78
2018-12-14T19:07:20.398Z,98.60
2018-12-14T19:09:48.108Z,98.90
2018-12-14T19:12:15.666Z,99.09
2018-12-14T19:14:43.074Z,98.76
2018-12-14T19:17:10.466Z,98.29
2018-12-14T19:19:37.877Z,98.13
2018-12-14T19:22:05.311Z,97.71
2018-12-14T19:24:32.698Z,98.17
2018-12-14T19:27:00.069Z,98.32
2018-12-14T19:29:27.459Z,97.96
2018-12-14T19:31:54.883Z,97.96
2018-12-14T19:34:22.482Z,96.90
2018-12-14T19:36:49.940Z,96.45
2018-12-14T19:39:17.506Z,96.96
2018-12-14T19:41:45.200Z,96.92
2018-12-14T19:44:12.582Z,97.06
2018-12-14T19:46:39.979Z,97.57
2018-12-14T19:49:07.361Z,96.95
2018-12-14T19:51:34.760Z,96.43
2018-12-14T19:54:02.210Z,95.85
2018-12-14T19:56:29.613Z,95.21
2018-12-14T19:58:56.985Z,94.18
2018-12-14T20:01:24.396Z,94.87
2018-12-14T20:03:51.769Z,94.82
2018-12-14T20:06:19.166Z,94.38
2018-12-14T20:08:46.559Z,94.38
2018-12-14T20:11:13.953Z,95.30
2018-12-14T20:13:41.326Z,93.64
2018-12-14T20:16:12.776Z,93.39
2018-12-14T20:18:38.097Z,93.88
2018-12-14T20:22:26.313Z,94.09
2018-12-14T20:24:53.708Z,94.15
2018-12-14T20:27:21.141Z,92.94
2018-12-14T20:29:48.626Z,93.82
2018-12-14T20:32:16.022Z,92.68
2018-12-14T20:34:43.398Z,92.44
2018-12-14T20:37:10.801Z,93.38
2018-12-14T20:39:38.275Z,93.63
2018-12-14T20:42:05.757Z,92.51
2018-12-14T20:44:33.150Z,91.74
2018-12-14T20:47:00.540Z,92.39
2018-12-14T20:49:28.030Z,92.83
2018-12-14T20:51:55.418Z,92.47
2018-12-14T20:54:22.815Z,92.35
2018-12-14T20:56:51.706Z,93.14
2018-12-14T20:59:19.393Z,92.69
2018-12-14T21:01:46.796Z,92.36
2018-12-14T21:04:14.266Z,92.43
2018-12-14T21:06:41.667Z,92.15
2018-12-14T21:09:09.070Z,92.40
2018-12-14T21:11:36.520Z,92.88
2018-12-14T21:14:03.966Z,92.10
2018-12-14T21:16:31.362Z,91.88
2018-12-14T21:18:58.781Z,92.25
2018-12-14T21:21:26.181Z,92.30
2018-12-14T21:23:53.612Z,92.07
2018-12-14T21:26:20.985Z,91.54
2018-12-14T21:28:48.375Z,91.73
2018-12-14T21:31:15.870Z,91.25
2018-12-14T21:33:43.253Z,91.08
2018-12-14T21:36:10.637Z,91.76
2018-12-14T21:38:38.034Z,92.01
2018-12-14T21:41:05.421Z,91.29
2018-12-14T21:43:33.390Z,91.81
2018-12-14T21:46:00.865Z,91.31
2018-12-14T21:48:28.261Z,91.49
2018-12-14T21:50:55.645Z,91.57
2018-12-14T21:53:23.020Z,91.22
2018-12-14T21:55:50.425Z,91.49
2018-12-14T21:58:17.972Z,91.30
2018-12-14T22:00:45.351Z,91.16
2018-12-14T22:03:12.734Z,91.49
2018-12-14T22:05:40.492Z,92.35
2018-12-14T22:08:07.923Z,92.09
2018-12-14T22:10:35.406Z,91.74
2018-12-14T22:13:02.810Z,91.72
2018-12-14T22:15:30.209Z,91.40
2018-12-14T22:17:57.703Z,91.63
2018-12-14T22:20:25.098Z,92.13
2018-12-14T22:22:52.481Z,91.19
2018-12-14T22:25:19.882Z,90.55
2018-12-14T22:27:47.283Z,90.89
2018-12-14T22:30:14.686Z,91.13
2018-12-14T22:32:42.086Z,90.62
2018-12-14T22:35:09.513Z,91.26
2018-12-14T22:37:36.901Z,91.29
2018-12-14T22:40:05.082Z,90.49
2018-12-14T22:42:32.454Z,91.06
2018-12-14T22:44:59.929Z,91.19
2018-12-14T22:47:27.330Z,90.42
2018-12-14T22:49:54.715Z,89.79
2018-12-14T22:52:22.102Z,89.81
2018-12-14T22:54:49.494Z,89.35
2018-12-14T22:57:16.893Z,89.77
2018-12-14T22:59:44.302Z,89.87
2018-12-14T23:02:11.693Z,90.11
2018-12-14T23:04:39.134Z,90.28
2018-12-14T23:07:06.568Z,90.09
2018-12-14T23:09:33.954Z,91.12
2018-12-14T23:12:01.345Z,90.27
2018-12-14T23:14:29.557Z,90.12
2018-12-14T23:16:56.938Z,90.44
2018-12-14T23:19:24.346Z,91.06
2018-12-14T23:21:51.759Z,91.83
2018-12-14T23:24:19.169Z,91.71
2018-12-14T23:26:46.552Z,91.36
2018-12-14T23:29:13.958Z,90.64
2018-12-14T23:31:41.425Z,90.70
2018-12-14T23:34:08.814Z,90.54
2018-12-14T23:36:36.403Z,90.18
2018-12-14T23:39:05.192Z,91.12
2018-12-14T23:41:32.577Z,90.84
2018-12-14T23:43:59.970Z,90.54
2018-12-14T23:46:27.358Z,90.99
2018-12-14T23:48:54.742Z,91.07
2018-12-14T23:51:22.138Z,90.85
2018-12-14T23:53:49.525Z,90.05
2018-12-14T23:56:16.933Z,90.73
2018-12-14T23:58:44.322Z,91.19
